Aeroporto :
LOGIN :

Iscrizione | Disclaimer

   EN    FR    IT 

 










Sommario :    VFR   VFR Marginale   IFR   IFR Intensivo   IFR Molto Intensivo
Visibilità : 
Base nubi : 
>= 8 km
>= 3000ft
5 / 8 km
1000 / 3000 ft
1500m / 5 km
500 / 1000 ft
800 / 1500m
200 / 500 ft
< 800m
< 200 ft
Simboli :   Temporali  Nebbia  Neve Forte  Precipitazioni Forti  Vento > 20 kt
SIGMETs :   Varie  Temporali  Ghiacco  Turbolenza  Onda orograficha  Ceneri Vulcaniche







- Altitudine del aeroporto : 876 ft
- Codice IATA : MBX


LJMB - Maribor

ULTIMO METAR :
  • 241300Z 08004KT 050V110 9999 FEW033 BKN070 BKN250 28/20 Q1020

METARs OBSOLETI :
  • 241230Z 08004KT 030V120 9999 SCT035 SCT085 BKN250 27/20 Q1021
  • 241200Z 36004KT 300V060 9999 FEW040 SCT085 BKN250 27/19 Q1021
  • 241130Z VRB02KT 9999 FEW049 SCT080 BKN250 27/20 Q1021
  • 241100Z 02005KT 340V050 CAVOK 26/19 Q1021
  • 241030Z 04006KT 350V080 CAVOK 26/19 Q1022

TAF TAF LJMB
Valido dal 24 a 12 ore il 25 a 12 ore UTC


241100Z 2412/2512 01006KT 9999 FEW040 SCT060 BKN250
TEMPO 2414/2503 18015KT 4000 TSRA BKN040CB OVC060
BECMG 2417/2420 01003KT
BECMG 2501/2504 BKN027 BKN060
BECMG 2506/2508 10008KT
Nessun NOTAM noto per questo aeroporto.



MetMap, La meteo Aeronautica in un colpo d'occhio ! - Copyright ORBIFLY Dicembre 2007 - Disclaimer

ORBIFLY MET'MAP TEAM :

Programmazione e sviluppo : Alexandra Zaïnal
Concezione e sviluppo : Baudouin d'Aumeries
Co-Programmazione e sviluppo : Marc-Olivier Méhu
Supporto tecnico e logistico : Manuel Goepfert
Aiuto per la traduzione : Arnaldo La Scala

Contatto : metmap@orbifly.com




FONTI E CREDITI :

   NOAA